Thunder radar more information blitzortung!


Radar de pluja more information rain snow radar


Visita la nostra xarxa de llocs de meteo:

Template documentation
and downloads

And another site



No particular awareness of the weather is required.    There are no Weather-warnings

Pagina Historial Weather Underground text

Diari Resum May 21, 2016 Unitats:  Mètric    Imperial   Tant
« Previous Dia
SegĂźent Dia »
Diari Setmana Mensual Anual Personalitzada
  Maxima: Minima: Media:
Temperatura: -17.8 °C -10.7 °C -6.7 °C
Punt de rosada: -17.8 °C -12.6 °C -11.6 °C
Humitat: Humidity % 42 % 58 %
Wind Speed: 0 km/h 0 km/h 14 km/h
RĂ fegues de vent: 0 km/h - -
Vent:- - SW
Pression baro: 0 hPa 34395 hPa -
Precipitacions: 0 mm    
Historical Graphs
 
 
Dades de taula per May 21, 2016
Temps Temperatura Punt de rosada Pression baro Vent Wind Speed RĂ fegues de vent Humitat Rainfall Rate (Hourly)
-17.8 °C -17.8 °C 0 hPa Calm     Humidity % 0 mm
00:00 -8.9 °C -11.8 °C 34567.7 hPa WSW 4.2 km/h 5.1 km/h 71 % 0 mm
00:10 -9.1 °C -11.8 °C 34601.5 hPa SW 6.3 km/h 6.3 km/h 72 % 0 mm
00:20 -10.7 °C -12.3 °C 34533.8 hPa WSW 2.6 km/h 5.1 km/h 82 % 0 mm
00:30 -10.6 °C -12.4 °C 34567.7 hPa WSW 2.6 km/h 5.1 km/h 81 % 0 mm
00:40 -10.6 °C -12.3 °C 34533.8 hPa WSW 5.1 km/h 5.1 km/h 81 % 0 mm
00:50 -10.5 °C -12.3 °C 34533.8 hPa West 5.1 km/h 7.7 km/h 81 % 0 mm
01:00 -10.5 °C -12.3 °C 34533.8 hPa West 2.6 km/h 7.7 km/h 81 % 0 mm
01:10 -10.6 °C -12.4 °C 34533.8 hPa WSW 2.6 km/h 7.7 km/h 80 % 0 mm
01:20 -10.6 °C -12.4 °C 34533.8 hPa West 5.1 km/h 7.7 km/h 80 % 0 mm
01:30 -10.6 °C -12.6 °C 34533.8 hPa West 2.6 km/h 10.3 km/h 79 % 0 mm
01:40 -10.6 °C -12.6 °C 34533.8 hPa West 5.1 km/h 10.3 km/h 79 % 0 mm
01:50 -10.3 °C -12.3 °C 34533.8 hPa West 2.6 km/h 5.1 km/h 79 % 0 mm
02:10 -10.4 °C -12.4 °C 34533.8 hPa SW 2.6 km/h 5.1 km/h 78 % 0 mm
02:20 -10.4 °C -12.4 °C 34533.8 hPa South 2.6 km/h 5.1 km/h 78 % 0 mm
02:30 -10.3 °C -12.4 °C 34533.8 hPa SE 2.6 km/h 5.1 km/h 78 % 0 mm
02:40 -10.2 °C -12.3 °C 34533.8 hPa SSE 2.6 km/h 5.1 km/h 78 % 0 mm
03:00 -9.7 °C -11.9 °C 34496.6 hPa ENE 2.6 km/h 5.1 km/h 77 % 0 mm
03:10 -9.3 °C -11.7 °C 34533.8 hPa ENE 2.6 km/h 7.7 km/h 76 % 0 mm
03:20 -9.1 °C -11.6 °C 34533.8 hPa Calm   5.1 km/h 75 % 0 mm
03:30 -8.9 °C -11.4 °C 34533.8 hPa ESE 2.6 km/h 2.6 km/h 75 % 0 mm
03:40 -8.6 °C -11.2 °C 34533.8 hPa SSE 2.6 km/h 5.1 km/h 74 % 0 mm
03:50 -8.3 °C -11.1 °C 34533.8 hPa SE 2.6 km/h 7.7 km/h 72 % 0 mm
04:00 -8.2 °C -11.2 °C 34533.8 hPa ESE 5.1 km/h 7.7 km/h 71 % 0 mm
04:10 -7.9 °C -11 °C 34533.8 hPa South 5.1 km/h 7.7 km/h 70 % 0 mm
04:20 -8 °C -11.2 °C 34533.8 hPa SW 2.6 km/h 7.7 km/h 69 % 0 mm
04:30 -7.6 °C -10.7 °C 34533.8 hPa WSW 5.1 km/h 7.7 km/h 70 % 0 mm
04:40 -7.5 °C -10.6 °C 34533.8 hPa SW 7.7 km/h 12.9 km/h 70 % 0 mm
04:50 -7.4 °C -10.7 °C 34533.8 hPa SW 7.7 km/h 12.9 km/h 68 % 0 mm
05:00 -7 °C -10.7 °C 34533.8 hPa SW 12.9 km/h 20.8 km/h 65 % 0 mm
05:10 -6.8 °C -10.6 °C 34533.8 hPa SW 7.7 km/h 15.6 km/h 65 % 0 mm
05:20 -6.4 °C -10.4 °C 34533.8 hPa SW 7.7 km/h 15.6 km/h 63 % 0 mm
05:30 -6.2 °C -10.7 °C 34533.8 hPa SW 7.7 km/h 15.6 km/h 60 % 0 mm
05:40 -6.1 °C -10.9 °C 34533.8 hPa SW 7.7 km/h 15.6 km/h 58 % 0 mm
05:50 -5.7 °C -10.9 °C 34533.8 hPa SW 5.1 km/h 15.6 km/h 55 % 0 mm
06:00 -5.8 °C -11.5 °C 34533.8 hPa SW 20.8 km/h 25.9 km/h 52 % 0 mm
06:10 -5.6 °C -11.3 °C 34533.8 hPa SW 15.6 km/h 25.9 km/h 52 % 0 mm
06:20 -5.4 °C -11.2 °C 34533.8 hPa SW 15.6 km/h 25.9 km/h 52 % 0 mm
11:23 -5.4 °C -11.2 °C 34533.8 hPa SW 33.6 km/h 33.6 km/h 52 % 0 mm
11:28 -5.4 °C -11.4 °C 34533.8 hPa SW 15 km/h 15 km/h 50 % 0 mm
11:33 -5.3 °C -11.8 °C 34533.8 hPa SSW 26.9 km/h 26.9 km/h 48 % 0 mm
11:38 -5.3 °C -11.6 °C 34533.8 hPa South 29.8 km/h 29.8 km/h 49 % 0 mm
11:43 -5.1 °C -11.2 °C 34533.8 hPa South 15 km/h 15 km/h 50 % 0 mm
11:48 -5.1 °C -11.4 °C 34533.8 hPa SW 17.9 km/h 17.9 km/h 49 % 0 mm
11:53 -5 °C -11.3 °C 34533.8 hPa SSW 33.6 km/h 33.6 km/h 49 % 0 mm
11:58 -5 °C -11.4 °C 34533.8 hPa SSW 32.8 km/h 32.8 km/h 48 % 0 mm
12:03 -5 °C -11.4 °C 34533.8 hPa SW 35.7 km/h 35.7 km/h 48 % 0 mm
12:08 -4.8 °C -11.3 °C 34533.8 hPa WSW 20.9 km/h 20.9 km/h 48 % 0 mm
12:13 -4.7 °C -11.2 °C 34533.8 hPa SSW 26.9 km/h 26.9 km/h 48 % 0 mm
12:18 -4.7 °C -11.3 °C 34533.8 hPa SE 20.9 km/h 20.9 km/h 47 % 0 mm
12:23 -4.8 °C -11.5 °C 34496.6 hPa SW 26.9 km/h 26.9 km/h 47 % 0 mm
12:28 -4.7 °C -11.2 °C 34496.6 hPa WSW 19.2 km/h 19.2 km/h 48 % 0 mm
12:33 -4.6 °C -11.2 °C 34496.6 hPa WSW 29.8 km/h 29.8 km/h 47 % 0 mm
12:38 -4.6 °C -11.2 °C 34496.6 hPa WSW 26.4 km/h 26.4 km/h 47 % 0 mm
12:43 -4.7 °C -11.6 °C 34496.6 hPa West 26.9 km/h 26.9 km/h 46 % 0 mm
12:48 -4.7 °C -11.5 °C 34496.6 hPa WSW 32.8 km/h 32.8 km/h 46 % 0 mm
12:53 -4.7 °C -11.5 °C 34496.6 hPa WSW 26.9 km/h 26.9 km/h 46 % 0 mm
12:58 -4.5 °C -11.3 °C 34496.6 hPa South 15 km/h 15.6 km/h 46 % 0 mm
13:03 -4.3 °C -11.3 °C 34496.6 hPa SSW 22 km/h 22 km/h 45 % 0 mm
13:08 -4.3 °C -11.4 °C 34496.6 hPa South 20.9 km/h 20.9 km/h 45 % 0 mm
13:13 -4.2 °C -11.2 °C 34496.6 hPa WNW 20.9 km/h 20.9 km/h 45 % 0 mm
13:18 -4.3 °C -11.5 °C 34496.6 hPa SSW 32.8 km/h 32.8 km/h 44 % 0 mm
13:28 -4.2 °C -11.5 °C 34496.6 hPa SW 15 km/h 15.3 km/h 44 % 0 mm
13:33 -4.3 °C -11.8 °C 34496.6 hPa West 35.7 km/h 35.7 km/h 43 % 0 mm
13:38 -4.4 °C -11.8 °C 34496.6 hPa WSW 32.8 km/h 32.8 km/h 43 % 0 mm
13:43 -4.3 °C -11.8 °C 34496.6 hPa WSW 26.9 km/h 26.9 km/h 43 % 0 mm
13:53 -4.3 °C -11.6 °C 34533.8 hPa WSW 23.8 km/h 23.8 km/h 44 % 0 mm
13:58 -4.2 °C -11.4 °C 34533.8 hPa WSW 26.9 km/h 26.9 km/h 44 % 0 mm
14:03 -4.3 °C -11.7 °C 34533.8 hPa West 29.8 km/h 29.8 km/h 43 % 0 mm
14:08 -4.3 °C -11.5 °C 34533.8 hPa SW 23.8 km/h 23.8 km/h 44 % 0 mm
14:13 -4.1 °C -11.3 °C 34533.8 hPa SW 23.8 km/h 23.8 km/h 44 % 0 mm
14:18 -4.1 °C -11.3 °C 34533.8 hPa SW 23.8 km/h 23.8 km/h 44 % 0 mm
14:23 -4.2 °C -11.4 °C 34496.6 hPa SW 26.9 km/h 26.9 km/h 44 % 0 mm
14:28 -4.2 °C -11.7 °C 34496.6 hPa SW 35.7 km/h 35.7 km/h 43 % 0 mm
14:33 -4.3 °C -11.5 °C 34496.6 hPa NW 23.8 km/h 23.8 km/h 44 % 0 mm
14:38 -4 °C -11.3 °C 34496.6 hPa WSW 20.9 km/h 20.9 km/h 44 % 0 mm
14:43 -4.1 °C -11.7 °C 34496.6 hPa WSW 22.5 km/h 22.5 km/h 42 % 0 mm
14:48 -4.2 °C -11.6 °C 34496.6 hPa SSW 20.9 km/h 22 km/h 43 % 0 mm
14:53 -4.1 °C -11.3 °C 34496.6 hPa SW 24.3 km/h 24.3 km/h 44 % 0 mm
14:58 -4.1 °C -11.2 °C 34496.6 hPa South 23.8 km/h 23.8 km/h 45 % 0 mm
15:03 -3.8 °C -11.1 °C 34496.6 hPa SSW 15 km/h 15 km/h 44 % 0 mm
15:08 -4.1 °C -11.2 °C 34496.6 hPa SSW 29.8 km/h 29.8 km/h 45 % 0 mm
15:13 -4.1 °C -11 °C 34496.6 hPa South 23.8 km/h 23.8 km/h 46 % 0 mm
15:18 -3.8 °C -10.9 °C 34496.6 hPa SSW 11.9 km/h 11.9 km/h 45 % 0 mm
15:23 -4.2 °C -11.1 °C 34496.6 hPa South 32.8 km/h 32.8 km/h 46 % 0 mm
15:28 -3.9 °C -10.8 °C 34496.6 hPa SSW 17.9 km/h 17.9 km/h 46 % 0 mm
15:33 -3.8 °C -10.9 °C 34496.6 hPa WSW 17.9 km/h 17.9 km/h 45 % 0 mm
15:38 -4.1 °C -11 °C 34496.6 hPa WSW 23.8 km/h 23.8 km/h 46 % 0 mm
15:43 -4.2 °C -11.1 °C 34496.6 hPa West 20.9 km/h 20.9 km/h 46 % 0 mm
15:48 -4.3 °C -11.2 °C 34496.6 hPa WSW 23.8 km/h 23.8 km/h 46 % 0 mm
15:58 -4.2 °C -11.2 °C 34496.6 hPa WSW 26.9 km/h 26.9 km/h 45 % 0 mm
16:03 -4.1 °C -11.2 °C 34496.6 hPa SSW 30.6 km/h 30.6 km/h 45 % 0 mm
16:08 -4.1 °C -11.2 °C 34462.7 hPa South 17.9 km/h 17.9 km/h 45 % 0 mm
16:13 -4.1 °C -11.2 °C 34462.7 hPa SW 29.8 km/h 29.8 km/h 45 % 0 mm
16:18 -4.2 °C -11.4 °C 34462.7 hPa SW 29.8 km/h 29.8 km/h 44 % 0 mm
16:23 -4.4 °C -11.6 °C 34462.7 hPa WSW 27.2 km/h 27.2 km/h 44 % 0 mm
16:28 -4.7 °C -11.9 °C 34462.7 hPa SSW 26.9 km/h 26.9 km/h 44 % 0 mm
16:43 -4.4 °C -11.7 °C 34462.7 hPa SW 26.9 km/h 26.9 km/h 44 % 0 mm
16:53 -4.3 °C -11.5 °C 34462.7 hPa SSW 20.9 km/h 20.9 km/h 44 % 0 mm
16:59 -4.2 °C -11.4 °C 34462.7 hPa ESE 23.8 km/h 23.8 km/h 44 % 0 mm
17:04 -3.9 °C -11.2 °C 34462.7 hPa SW 23.8 km/h 23.8 km/h 44 % 0 mm
17:09 -4.2 °C -11.7 °C 34462.7 hPa SW 20.9 km/h 20.9 km/h 43 % 0 mm
17:14 -4.6 °C -11.8 °C 34462.7 hPa SW 23.8 km/h 23.8 km/h 44 % 0 mm
17:19 -4.6 °C -11.8 °C 34462.7 hPa SW 29 km/h 29 km/h 44 % 0 mm
17:24 -4.4 °C -11.6 °C 34428.8 hPa SSW 15 km/h 15 km/h 44 % 0 mm
17:29 -4.3 °C -11.6 °C 34428.8 hPa SSW 11.9 km/h 11.9 km/h 44 % 0 mm
17:34 -4.2 °C -11.4 °C 34428.8 hPa SSW 16.1 km/h 16.1 km/h 44 % 0 mm
17:39 -4.4 °C -11.7 °C 34462.7 hPa SSE 20.9 km/h 20.9 km/h 44 % 0 mm
17:44 -4.6 °C -11.8 °C 34462.7 hPa WSW 31.4 km/h 31.4 km/h 44 % 0 mm
17:49 -4.5 °C -11.7 °C 34462.7 hPa SW 9 km/h 12.2 km/h 44 % 0 mm
17:54 -4.4 °C -11.6 °C 34462.7 hPa WSW 20.9 km/h 20.9 km/h 44 % 0 mm
17:59 -4.7 °C -11.9 °C 34462.7 hPa WSW 26.9 km/h 26.9 km/h 44 % 0 mm
18:04 -4.7 °C -11.9 °C 34462.7 hPa SW 26.9 km/h 26.9 km/h 44 % 0 mm
18:09 -4.7 °C -11.9 °C 34462.7 hPa South 15.3 km/h 15.3 km/h 44 % 0 mm
18:19 -4.9 °C -12.1 °C 34462.7 hPa SSW 11.9 km/h 11.9 km/h 44 % 0 mm
18:29 -5.1 °C -12.1 °C 34462.7 hPa WSW 20.9 km/h 20.9 km/h 45 % 0 mm
18:34 -5.1 °C -11.9 °C 34462.7 hPa SSW 15 km/h 15 km/h 46 % 0 mm
18:39 -5.1 °C -11.9 °C 34462.7 hPa SSE 15 km/h 15 km/h 46 % 0 mm
18:49 -5.2 °C -11.8 °C 34462.7 hPa WSW 24.3 km/h 24.3 km/h 47 % 0 mm
18:59 -5.6 °C -11.9 °C 34462.7 hPa SW 15 km/h 15 km/h 48 % 0 mm
19:04 -5.6 °C -12 °C 34462.7 hPa West 11.9 km/h 11.9 km/h 48 % 0 mm
19:09 -5.8 °C -12 °C 34462.7 hPa WSW 11.9 km/h 11.9 km/h 49 % 0 mm
19:10 -9.3 °C -11.6 °C 34462.7 hPa Calm   18.2 km/h 76 % 0 mm
19:14 -6 °C -12.2 °C 34462.7 hPa WSW 6 km/h 8.5 km/h 49 % 0 mm
19:19 -6 °C -12.2 °C 34462.7 hPa SW 17.9 km/h 17.9 km/h 49 % 0 mm
19:20 -9.3 °C -11.7 °C 34462.7 hPa Calm   2.6 km/h 76 % 0 mm
19:30 -9.3 °C -11.6 °C 34462.7 hPa Calm     77 % 0 mm
19:34 -6.2 °C -11.9 °C 34462.7 hPa WSW 17.9 km/h 17.9 km/h 52 % 0 mm
19:39 -6.4 °C -11.9 °C 34462.7 hPa SW 11.9 km/h 14.5 km/h 53 % 0 mm
19:40 -9.3 °C -11.6 °C 34462.7 hPa WSW 2.6 km/h 5.1 km/h 76 % 0 mm
19:44 -6.6 °C -11.9 °C 34462.7 hPa WSW 17.9 km/h 17.9 km/h 54 % 0 mm
19:49 -6.7 °C -12 °C 34462.7 hPa WSW 15 km/h 15 km/h 54 % 0 mm
19:50 -9.3 °C -11.4 °C 34462.7 hPa Calm   2.6 km/h 78 % 0 mm
19:54 -6.8 °C -11.9 °C 34462.7 hPa SW 20.9 km/h 20.9 km/h 55 % 0 mm
19:59 -6.8 °C -12 °C 34462.7 hPa SSW 9.3 km/h 9.3 km/h 55 % 0 mm
20:00 -9.3 °C -11.4 °C 34462.7 hPa Calm     78 % 0 mm
20:04 -6.8 °C -11.8 °C 34462.7 hPa SW 15 km/h 15 km/h 56 % 0 mm
20:10 -9.3 °C -11.6 °C 34462.7 hPa SW 2.6 km/h 5.1 km/h 77 % 0 mm
20:14 -7.1 °C -11.9 °C 34462.7 hPa SW 7.6 km/h 11.6 km/h 57 % 0 mm
20:20 -7.2 °C -11.8 °C 34462.7 hPa SW 7.6 km/h 11.6 km/h 58 % 0 mm
20:25 -7.2 °C -11.8 °C 34462.7 hPa SW 7.6 km/h 11.6 km/h 59 % 0 mm
20:30 -7.3 °C -11.7 °C 34462.7 hPa SSW 15 km/h 15 km/h 60 % 0 mm
20:35 -7.4 °C -11.8 °C 34428.8 hPa SW 11.9 km/h 11.9 km/h 60 % 0 mm
20:40 -7.4 °C -11.8 °C 34428.8 hPa SW 11.9 km/h 11.9 km/h 60 % 0 mm
20:45 -7.5 °C -11.9 °C 34428.8 hPa SSW 11.9 km/h 11.9 km/h 60 % 0 mm
20:50 -7.5 °C -11.9 °C 34496.6 hPa SSW 9 km/h 9 km/h 60 % 0 mm
20:55 -7.6 °C -11.8 °C 34496.6 hPa SSW 6 km/h 6 km/h 61 % 0 mm
21:00 -7.7 °C -11.9 °C 34496.6 hPa WSW 6 km/h 7.6 km/h 61 % 0 mm
21:05 -7.7 °C -12 °C 34462.7 hPa SW 11.9 km/h 11.9 km/h 61 % 0 mm
21:10 -7.8 °C -11.9 °C 34462.7 hPa SW 9 km/h 9 km/h 62 % 0 mm
21:15 -7.9 °C -12 °C 34462.7 hPa SW 9 km/h 9 km/h 62 % 0 mm
21:20 -7.9 °C -12 °C 34462.7 hPa SW 9 km/h 9 km/h 62 % 0 mm
21:25 -8 °C -12.1 °C 34462.7 hPa SW 6 km/h 6 km/h 62 % 0 mm
21:30 -8.1 °C -12 °C 34462.7 hPa SW 2.6 km/h 7.7 km/h 63 % 0 mm
21:35 -8.2 °C -12.1 °C 34462.7 hPa SW 9 km/h 9 km/h 63 % 0 mm
21:40 -8.2 °C -12.1 °C 34462.7 hPa SW 5.1 km/h 12.9 km/h 64 % 0 mm
21:45 -8.3 °C -12 °C 34462.7 hPa SW 7.7 km/h 10.3 km/h 65 % 0 mm
21:50 -8.3 °C -11.8 °C 34462.7 hPa SW 15.3 km/h 15.3 km/h 67 % 0 mm
21:55 -8.4 °C -11.7 °C 34462.7 hPa SW 15.3 km/h 15.3 km/h 68 % 0 mm
22:00 -9.8 °C -11.7 °C 34395 hPa ENE 5.1 km/h 5.1 km/h 80 % 0 mm
22:05 -8.5 °C -11.7 °C 34462.7 hPa SW 5.1 km/h 15.6 km/h 69 % 0 mm
22:10 -8.5 °C -11.7 °C 34462.7 hPa West 9.8 km/h 9.8 km/h 69 % 0 mm
22:15 -8.6 °C -11.6 °C 34462.7 hPa SW 9 km/h 9 km/h 71 % 0 mm
22:20 -8.6 °C -11.7 °C 34428.8 hPa SW 4.2 km/h 5.1 km/h 70 % 0 mm
22:25 -8.7 °C -11.5 °C 34428.8 hPa SW 4.2 km/h 5.1 km/h 72 % 0 mm
22:30 -8.7 °C -11.5 °C 34428.8 hPa SW 4.2 km/h 5.1 km/h 72 % 0 mm
22:35 -8.7 °C -11.5 °C 34442.4 hPa SW 5.1 km/h 5.1 km/h 72 % 0 mm
22:40 -8.7 °C -11.4 °C 34462.7 hPa Calm   5.1 km/h 73 % 0 mm
22:45 -8.8 °C -11.6 °C 34462.7 hPa Calm     72 % 0 mm
22:50 -8.8 °C -11.5 °C 34462.7 hPa Calm     73 % 0 mm
22:55 -8.8 °C -11.5 °C 34462.7 hPa Calm     73 % 0 mm
23:00 -10.2 °C -12 °C 34395 hPa Calm     81 % 0 mm
23:05 -8.9 °C -11.4 °C 34462.7 hPa Calm   2.6 km/h 74 % 0 mm
23:10 -8.9 °C -11.4 °C 34462.7 hPa Calm     74 % 0 mm
23:15 -8.9 °C -11.6 °C 34462.7 hPa West 2.6 km/h 2.6 km/h 73 % 0 mm
23:20 -8.9 °C -11.4 °C 34462.7 hPa Calm   2.6 km/h 75 % 0 mm
23:25 -8.9 °C -11.4 °C 34462.7 hPa Calm     75 % 0 mm
23:30 -9 °C -11.4 °C 34462.7 hPa Calm     75 % 0 mm
23:35 -9.1 °C -11.5 °C 34462.7 hPa NNE 3.1 km/h   75 % 0 mm
23:40 -9.1 °C -11.5 °C 34462.7 hPa NNE 3.1 km/h   75 % 0 mm
23:45 -9.1 °C -11.4 °C 34462.7 hPa Calm   2.6 km/h 76 % 0 mm
23:50 -9.1 °C -11.5 °C 34428.8 hPa Calm     75 % 0 mm
23:55 -9.1 °C -11.5 °C 34428.8 hPa Calm     75 % 0 mm
Meteo Sesrovires
Elogis d' Weather Underground - 1.5 mb

Guio original per  Jim McMurry - jmcmurry@mwt.net Adaptat per a la plantilla per  Wim van der Kuil - Leuven-Template.eu

Trobareu la nostra informacio del temps tambe a:

Weather Underground

AWEKAS